createdAt,value
2023-02-24T00:01:43.205Z,98714.19
2023-02-24T00:04:11.968Z,98718.81
2023-02-24T00:06:42.018Z,98721.00
2023-02-24T00:09:10.644Z,98717.50
2023-02-24T00:11:38.401Z,98718.59
2023-02-24T00:14:05.546Z,98711.59
2023-02-24T00:16:32.688Z,98706.69
2023-02-24T00:18:59.664Z,98699.69
2023-02-24T00:21:27.013Z,98700.00
2023-02-24T00:23:55.391Z,98698.09
2023-02-24T00:26:22.086Z,98694.44
2023-02-24T00:28:48.668Z,98693.13
2023-02-24T00:31:17.685Z,98692.63
2023-02-24T00:33:45.782Z,98690.25
2023-02-24T00:36:15.179Z,98680.56
2023-02-24T00:38:42.941Z,98680.88
2023-02-24T00:41:13.389Z,98678.47
2023-02-24T00:43:40.881Z,98678.47
2023-02-24T00:46:07.450Z,98681.47
2023-02-24T00:48:34.090Z,98670.69
2023-02-24T00:51:01.152Z,98664.47
2023-02-24T00:53:27.907Z,98658.28
2023-02-24T00:55:59.135Z,98661.56
2023-02-24T00:58:27.239Z,98663.00
2023-02-24T01:00:53.786Z,98659.00
2023-02-24T01:03:20.374Z,98653.91
2023-02-24T01:05:47.129Z,98648.81
2023-02-24T01:08:13.679Z,98642.31
2023-02-24T01:10:40.245Z,98642.63
2023-02-24T01:13:06.770Z,98637.56
2023-02-24T01:15:34.730Z,98640.56
2023-02-24T01:18:01.276Z,98635.66
2023-02-24T01:20:27.856Z,98634.84
2023-02-24T01:22:54.441Z,98627.06
2023-02-24T01:25:21.153Z,98621.66
2023-02-24T01:27:48.235Z,98617.38
2023-02-24T01:30:15.269Z,98613.88
2023-02-24T01:32:43.840Z,98611.47
2023-02-24T01:35:10.960Z,98609.38
2023-02-24T01:37:38.324Z,98607.81
2023-02-24T01:40:05.474Z,98601.41
2023-02-24T01:42:32.140Z,98597.91
2023-02-24T01:45:18.940Z,98589.31
2023-02-24T01:47:47.575Z,98584.72
2023-02-24T01:50:16.314Z,98586.63
2023-02-24T01:52:46.856Z,98582.81
2023-02-24T01:55:18.357Z,98576.63
2023-02-24T01:57:44.979Z,98577.13
2023-02-24T02:00:13.645Z,98567.44
2023-02-24T02:02:43.734Z,98561.53
2023-02-24T02:05:12.194Z,98560.75
2023-02-24T02:07:40.693Z,98564.88
2023-02-24T02:10:09.646Z,98560.06
2023-02-24T02:12:39.656Z,98559.88
2023-02-24T02:15:08.300Z,98556.72
2023-02-24T02:17:43.341Z,98555.63
2023-02-24T02:20:50.647Z,98545.28
2023-02-24T02:23:43.084Z,98542.66
2023-02-24T02:26:31.062Z,98537.25
2023-02-24T02:29:20.925Z,98536.94
2023-02-24T02:32:08.688Z,98538.53
2023-02-24T02:34:47.631Z,98530.75
2023-02-24T02:37:24.101Z,98526.34
2023-02-24T02:39:55.879Z,98528.25
2023-02-24T02:42:30.552Z,98528.56
2023-02-24T02:45:07.184Z,98516.16
2023-02-24T02:47:37.836Z,98518.38
2023-02-24T02:50:11.991Z,98519.47
2023-02-24T02:52:43.312Z,98523.75
2023-02-24T02:55:14.328Z,98518.38
2023-02-24T02:57:48.671Z,98516.00
2023-02-24T03:00:17.993Z,98517.09
2023-02-24T03:02:50.553Z,98511.38
2023-02-24T03:05:22.178Z,98515.50
2023-02-24T03:07:53.111Z,98513.09
2023-02-24T03:10:22.943Z,98514.50
2023-02-24T03:12:53.240Z,98515.31
2023-02-24T03:15:22.188Z,98505.00
2023-02-24T03:17:55.444Z,98504.81
2023-02-24T03:20:27.355Z,98502.25
2023-02-24T03:22:59.023Z,98489.81
2023-02-24T03:25:33.482Z,98492.75
2023-02-24T03:28:06.008Z,98491.78
2023-02-24T03:30:40.870Z,98500.78
2023-02-24T03:33:12.481Z,98497.84
2023-02-24T03:35:41.350Z,98498.34
2023-02-24T03:38:08.696Z,98502.94
2023-02-24T03:40:36.563Z,98494.47
2023-02-24T03:43:07.918Z,98496.22
2023-02-24T03:45:37.074Z,98485.44
2023-02-24T03:48:04.853Z,98486.34
2023-02-24T03:50:32.682Z,98484.75
2023-02-24T03:53:11.832Z,98474.75
2023-02-24T03:55:48.959Z,98475.41
2023-02-24T03:58:24.053Z,98473.28
2023-02-24T04:00:58.259Z,98470.59
2023-02-24T04:03:30.898Z,98468.22
2023-02-24T04:06:09.167Z,98457.13
2023-02-24T04:08:43.600Z,98463.13
2023-02-24T04:11:17.696Z,98464.25
2023-02-24T04:13:49.550Z,98470.72
2023-02-24T04:16:22.231Z,98466.94
2023-02-24T04:18:51.361Z,98469.13
2023-02-24T04:21:20.426Z,98477.31
2023-02-24T04:23:48.921Z,98477.00
2023-02-24T04:26:17.700Z,98475.13
2023-02-24T04:28:45.963Z,98470.03
2023-02-24T04:31:13.684Z,98477.59
2023-02-24T04:33:40.419Z,98472.53
2023-02-24T04:36:07.396Z,98473.16
2023-02-24T04:38:34.084Z,98481.22
2023-02-24T04:41:02.022Z,98466.56
2023-02-24T04:43:28.691Z,98452.41
2023-02-24T04:45:55.320Z,98440.16
2023-02-24T04:48:21.840Z,98442.56
2023-02-24T04:50:48.378Z,98442.34
2023-02-24T04:53:16.875Z,98443.16
2023-02-24T04:55:45.493Z,98431.69
2023-02-24T04:58:15.160Z,98431.41
2023-02-24T05:00:41.706Z,98437.09
2023-02-24T05:03:11.550Z,98431.50
2023-02-24T05:05:38.472Z,98426.13
2023-02-24T05:08:07.102Z,98436.09
2023-02-24T05:10:38.120Z,98427.53
2023-02-24T05:13:05.489Z,98422.91
2023-02-24T05:15:34.066Z,98421.03
2023-02-24T05:18:02.084Z,98424.03
2023-02-24T05:20:28.718Z,98427.03
2023-02-24T05:22:55.296Z,98421.94
2023-02-24T05:25:22.370Z,98420.94
2023-02-24T05:27:48.918Z,98422.84
2023-02-24T05:30:15.690Z,98414.75
2023-02-24T05:32:43.850Z,98411.09
2023-02-24T05:35:10.617Z,98411.59
2023-02-24T05:37:38.484Z,98409.69
2023-02-24T05:40:06.237Z,98408.41
2023-02-24T05:42:34.125Z,98408.09
2023-02-24T05:45:00.678Z,98408.91
2023-02-24T05:47:27.378Z,98400.81
2023-02-24T05:49:55.217Z,98399.22
2023-02-24T05:52:21.789Z,98399.22
2023-02-24T05:54:48.516Z,98394.66
2023-02-24T05:57:16.936Z,98393.63
2023-02-24T05:59:44.073Z,98395.25
2023-02-24T06:02:13.086Z,98387.16
2023-02-24T06:04:41.381Z,98385.56
2023-02-24T06:07:12.860Z,98391.88
2023-02-24T06:09:40.107Z,98386.97
2023-02-24T06:12:06.779Z,98388.38
2023-02-24T06:14:33.570Z,98390.28
2023-02-24T06:17:00.271Z,98382.69
2023-02-24T06:19:26.761Z,98386.78
2023-02-24T06:21:53.400Z,98388.38
2023-02-24T06:24:21.392Z,98392.97
2023-02-24T06:26:47.901Z,98385.69
2023-02-24T06:29:16.092Z,98380.59
2023-02-24T06:31:43.421Z,98384.88
2023-02-24T06:34:10.679Z,98377.69
2023-02-24T06:36:37.520Z,98377.63
2023-02-24T06:39:05.402Z,98374.91
2023-02-24T06:41:33.819Z,98375.91
2023-02-24T06:44:00.382Z,98373.09
2023-02-24T06:46:27.085Z,98375.00
2023-02-24T06:48:53.659Z,98369.13
2023-02-24T06:51:20.521Z,98369.13
2023-02-24T06:53:47.198Z,98378.19
2023-02-24T06:56:15.475Z,98384.34
2023-02-24T06:58:44.494Z,98366.81
2023-02-24T07:01:12.525Z,98363.59
2023-02-24T07:03:40.039Z,98349.84
2023-02-24T07:06:07.548Z,98352.03
2023-02-24T07:08:34.094Z,98355.06
2023-02-24T07:11:00.852Z,98353.63
2023-02-24T07:13:27.639Z,98357.25
2023-02-24T07:15:55.835Z,98343.97
2023-02-24T07:18:22.470Z,98358.66
2023-02-24T07:20:49.479Z,98351.97
2023-02-24T07:23:16.889Z,98353.56
2023-02-24T07:25:44.525Z,98340.31
2023-02-24T07:28:11.104Z,98349.06
2023-02-24T07:30:38.915Z,98344.66
2023-02-24T07:33:07.165Z,98333.47
2023-02-24T07:35:33.717Z,98331.78
2023-02-24T07:38:00.299Z,98332.16
2023-02-24T07:40:27.168Z,98327.84
2023-02-24T07:42:53.766Z,98321.88
2023-02-24T07:45:20.878Z,98329.31
2023-02-24T07:47:47.459Z,98321.38
2023-02-24T07:50:15.607Z,98323.13
2023-02-24T07:52:42.157Z,98320.03
2023-02-24T07:55:09.718Z,98323.19
2023-02-24T07:57:36.707Z,98308.03
2023-02-24T08:00:04.805Z,98309.50
2023-02-24T08:02:31.448Z,98308.09
2023-02-24T08:04:57.981Z,98305.44
2023-02-24T08:07:25.928Z,98299.31
2023-02-24T08:09:52.980Z,98303.16
2023-02-24T08:12:22.601Z,98297.03
2023-02-24T08:14:51.592Z,98296.31
2023-02-24T08:17:19.268Z,98293.63
2023-02-24T08:19:47.486Z,98297.31
2023-02-24T08:22:15.090Z,98292.72
2023-02-24T08:24:42.976Z,98280.06
2023-02-24T08:27:09.705Z,98277.53
2023-02-24T08:29:38.322Z,98268.34
2023-02-24T08:32:04.984Z,98259.16
2023-02-24T08:34:31.553Z,98260.72
2023-02-24T08:36:58.119Z,98252.97
2023-02-24T08:39:25.057Z,98246.78
2023-02-24T08:41:53.009Z,98243.13
2023-02-24T08:44:19.601Z,98238.22
2023-02-24T08:46:46.639Z,98231.44
2023-02-24T08:49:13.232Z,98234.59
2023-02-24T08:51:39.858Z,98223.97
2023-02-24T08:54:09.135Z,98219.97
2023-02-24T08:56:35.678Z,98219.16
2023-02-24T08:59:05.941Z,98211.03
2023-02-24T09:01:35.060Z,98211.31
2023-02-24T09:04:04.948Z,98200.41
2023-02-24T09:06:37.645Z,98200.88
2023-02-24T09:09:05.329Z,98202.00
2023-02-24T09:11:31.898Z,98183.88
2023-02-24T09:13:58.449Z,98180.31
2023-02-24T09:16:26.502Z,98178.56
2023-02-24T09:18:53.189Z,98165.38
2023-02-24T09:21:20.032Z,98166.41
2023-02-24T09:23:46.697Z,98157.50
2023-02-24T09:26:13.278Z,98150.03
2023-02-24T09:28:40.819Z,98154.28
2023-02-24T09:31:07.567Z,98156.41
2023-02-24T09:33:37.332Z,98145.28
2023-02-24T09:36:06.618Z,98145.59
2023-02-24T09:38:33.325Z,98136.50
2023-02-24T09:41:04.797Z,98128.06
2023-02-24T09:43:40.894Z,98136.50
2023-02-24T09:46:08.293Z,98124.78
2023-02-24T09:48:42.470Z,98120.47
2023-02-24T09:51:11.973Z,98112.19
2023-02-24T09:53:41.293Z,98111.25
2023-02-24T09:56:17.399Z,98120.78
2023-02-24T09:58:49.338Z,98104.75
2023-02-24T10:01:47.270Z,98111.38
2023-02-24T10:04:51.984Z,98103.47
2023-02-24T10:07:28.280Z,98106.03
2023-02-24T10:09:58.673Z,98101.56
2023-02-24T10:12:32.900Z,98102.56
2023-02-24T10:15:04.969Z,98101.59
2023-02-24T10:17:31.572Z,98085.84
2023-02-24T10:20:02.518Z,98089.81
2023-02-24T10:22:42.292Z,98084.38
2023-02-24T10:25:26.272Z,98084.56
2023-02-24T10:28:03.444Z,98083.88
2023-02-24T10:30:42.240Z,98074.13
2023-02-24T10:33:20.536Z,98078.22
2023-02-24T10:35:48.548Z,98076.88
2023-02-24T10:38:15.721Z,98067.22
2023-02-24T10:40:48.605Z,98067.22
2023-02-24T10:43:17.486Z,98061.84
2023-02-24T10:45:45.768Z,98056.88
2023-02-24T10:48:18.503Z,98052.94
2023-02-24T10:50:55.972Z,98050.38
2023-02-24T10:53:26.420Z,98062.94
2023-02-24T10:55:54.979Z,98054.50
2023-02-24T10:58:28.061Z,98052.94
2023-02-24T11:00:57.590Z,98042.13
2023-02-24T11:03:32.469Z,98048.69
2023-02-24T11:06:00.763Z,98051.56
2023-02-24T11:08:27.798Z,98043.13
2023-02-24T11:10:54.469Z,98048.38
2023-02-24T11:13:21.068Z,98033.41
2023-02-24T11:15:50.991Z,98042.78
2023-02-24T11:18:20.613Z,98036.34
2023-02-24T11:20:51.538Z,98038.88
2023-02-24T11:23:23.453Z,98035.25
2023-02-24T11:25:53.183Z,98028.09
2023-02-24T11:28:33.777Z,98022.91
2023-02-24T11:31:12.220Z,98016.88
2023-02-24T11:33:46.914Z,98020.22
2023-02-24T11:36:24.710Z,98022.78
2023-02-24T11:39:16.558Z,98015.34
2023-02-24T11:41:49.222Z,98016.97
2023-02-24T11:44:20.500Z,98012.59
2023-02-24T11:46:51.910Z,98004.81
2023-02-24T11:49:28.424Z,98002.59
2023-02-24T11:51:57.267Z,97993.06
2023-02-24T11:54:29.098Z,97990.88
2023-02-24T11:56:57.404Z,97979.28
2023-02-24T11:59:30.907Z,97977.06
2023-02-24T12:02:04.541Z,97976.72
2023-02-24T12:04:37.764Z,97965.50
2023-02-24T12:07:07.867Z,97952.03
2023-02-24T12:09:42.826Z,97959.78
2023-02-24T12:12:13.855Z,97952.03
2023-02-24T12:14:47.498Z,97957.88
2023-02-24T12:17:21.208Z,97953.16
2023-02-24T12:19:58.568Z,97949.97
2023-02-24T12:22:31.039Z,97957.56
2023-02-24T12:24:59.099Z,97949.31
2023-02-24T12:27:45.451Z,97936.91
2023-02-24T12:30:39.094Z,97937.72
2023-02-24T12:33:18.044Z,97931.53
2023-02-24T12:35:51.461Z,97931.66
2023-02-24T12:38:34.602Z,97931.31
2023-02-24T12:41:17.203Z,97929.03
2023-02-24T12:43:49.599Z,97929.91
2023-02-24T12:46:24.025Z,97924.81
2023-02-24T12:49:13.063Z,97919.84
2023-02-24T12:51:45.965Z,97918.38
2023-02-24T12:54:22.226Z,97912.19
2023-02-24T12:56:57.827Z,97913.75
2023-02-24T12:59:30.641Z,97914.50
2023-02-24T13:02:06.095Z,97912.59
2023-02-24T13:04:40.260Z,97904.34
2023-02-24T13:07:18.625Z,97903.19
2023-02-24T13:09:56.142Z,97903.44
2023-02-24T13:12:30.068Z,97890.94
2023-02-24T13:14:56.864Z,97894.25
2023-02-24T13:17:24.979Z,97895.81
2023-02-24T13:19:52.914Z,97886.00
2023-02-24T13:22:30.742Z,97885.03
2023-02-24T13:25:02.448Z,97884.03
2023-02-24T13:27:33.866Z,97870.91
2023-02-24T13:30:04.494Z,97861.69
2023-02-24T13:32:33.819Z,97859.50
2023-02-24T13:35:02.296Z,97861.09
2023-02-24T13:37:35.200Z,97858.84
2023-02-24T13:40:19.882Z,97859.44
2023-02-24T13:42:59.806Z,97848.88
2023-02-24T13:45:28.264Z,97843.22
2023-02-24T13:48:19.740Z,97837.53
2023-02-24T13:51:04.772Z,97835.66
2023-02-24T13:53:48.269Z,97829.19
2023-02-24T13:56:35.899Z,97832.47
2023-02-24T13:59:39.673Z,97824.72
2023-02-24T14:02:14.148Z,97821.63
2023-02-24T14:04:48.260Z,97820.94
2023-02-24T14:07:21.483Z,97807.34
2023-02-24T14:09:52.760Z,97803.19
2023-02-24T14:12:21.608Z,97815.22
2023-02-24T14:14:50.965Z,97803.97
2023-02-24T14:17:21.792Z,97799.84
2023-02-24T14:19:48.395Z,97808.56
2023-02-24T14:22:19.193Z,97790.81
2023-02-24T14:24:45.942Z,97789.41
2023-02-24T14:27:21.857Z,97790.22
2023-02-24T14:29:51.538Z,97792.72
2023-02-24T14:32:21.713Z,97785.94
2023-02-24T14:34:48.577Z,97774.69
2023-02-24T14:37:15.424Z,97773.16
2023-02-24T14:39:50.093Z,97769.66
2023-02-24T14:42:16.795Z,97772.69
2023-02-24T14:44:46.060Z,97768.72
2023-02-24T14:47:16.097Z,97761.97
2023-02-24T14:49:52.686Z,97766.25
2023-02-24T14:52:27.584Z,97763.97
2023-02-24T14:54:59.334Z,97760.69
2023-02-24T14:57:29.138Z,97761.63
2023-02-24T15:00:00.516Z,97752.47
2023-02-24T15:02:33.314Z,97751.66
2023-02-24T15:05:00.730Z,97750.88
2023-02-24T15:07:31.210Z,97743.63
2023-02-24T15:09:59.742Z,97741.72
2023-02-24T15:12:30.385Z,97733.84
2023-02-24T15:15:00.819Z,97724.69
2023-02-24T15:17:29.150Z,97736.72
2023-02-24T15:19:55.958Z,97732.75
2023-02-24T15:22:25.884Z,97719.13
2023-02-24T15:24:54.086Z,97721.50
2023-02-24T15:27:24.778Z,97722.59
2023-02-24T15:30:04.438Z,97717.44
2023-02-24T15:32:37.607Z,97712.38
2023-02-24T15:35:05.593Z,97701.81
2023-02-24T15:37:39.496Z,97701.53
2023-02-24T15:40:17.695Z,97707.03
2023-02-24T15:42:50.341Z,97700.88
2023-02-24T15:45:25.343Z,97701.19
2023-02-24T15:47:54.760Z,97690.63
2023-02-24T15:50:21.939Z,97685.72
2023-02-24T15:52:49.012Z,97692.66
2023-02-24T15:55:16.943Z,97688.56
2023-02-24T15:57:43.602Z,97688.09
2023-02-24T16:00:13.857Z,97678.91
2023-02-24T16:02:41.363Z,97671.50
2023-02-24T16:05:12.545Z,97670.09
2023-02-24T16:07:39.904Z,97665.03
2023-02-24T16:10:07.165Z,97661.88
2023-02-24T16:12:36.667Z,97665.34
2023-02-24T16:15:06.927Z,97671.81
2023-02-24T16:17:35.616Z,97668.63
2023-02-24T16:20:03.309Z,97672.09
2023-02-24T16:22:31.470Z,97674.00
2023-02-24T16:24:58.002Z,97676.38
2023-02-24T16:27:24.668Z,97662.47
2023-02-24T16:29:51.378Z,97677.97
2023-02-24T16:32:18.138Z,97676.38
2023-02-24T16:34:44.842Z,97676.06
2023-02-24T16:37:17.585Z,97666.44
2023-02-24T16:39:46.169Z,97663.44
2023-02-24T16:42:13.149Z,97669.91
2023-02-24T16:44:39.729Z,97663.44
2023-02-24T16:47:07.766Z,97659.78
2023-02-24T16:49:34.534Z,97648.25
2023-02-24T16:52:01.087Z,97650.47
2023-02-24T16:54:27.639Z,97638.16
2023-02-24T16:56:55.637Z,97640.84
2023-02-24T16:59:22.531Z,97640.84
2023-02-24T17:01:49.339Z,97641.00
2023-02-24T17:04:16.129Z,97643.19
2023-02-24T17:06:42.696Z,97641.31
2023-02-24T17:09:09.394Z,97642.59
2023-02-24T17:11:35.912Z,97639.59
2023-02-24T17:14:03.860Z,97641.97
2023-02-24T17:16:30.610Z,97638.00
2023-02-24T17:18:57.175Z,97643.56
2023-02-24T17:21:23.884Z,97640.25
2023-02-24T17:23:50.435Z,97638.34
2023-02-24T17:26:17.419Z,97641.81
2023-02-24T17:28:44.102Z,97645.00
2023-02-24T17:31:12.039Z,97643.91
2023-02-24T17:33:38.675Z,97627.78
2023-02-24T17:36:05.632Z,97635.06
2023-02-24T17:38:32.204Z,97631.56
2023-02-24T17:40:58.815Z,97629.19
2023-02-24T17:43:25.392Z,97626.69
2023-02-24T17:45:52.006Z,97625.41
2023-02-24T17:48:20.923Z,97623.22
2023-02-24T17:50:48.113Z,97623.22
2023-02-24T17:53:15.118Z,97617.66
2023-02-24T18:01:45.920Z,97621.78
2023-02-24T18:04:13.915Z,97610.56
2023-02-24T18:06:40.687Z,97614.03
2023-02-24T18:09:07.260Z,97618.91
2023-02-24T18:11:33.955Z,97627.75
2023-02-24T18:14:01.429Z,97615.94
2023-02-24T18:16:28.685Z,97617.50
2023-02-24T18:18:55.489Z,97617.81
2023-02-24T18:21:23.418Z,97610.06
2023-02-24T18:23:50.007Z,97615.75
2023-02-24T18:26:16.674Z,97622.88
2023-02-24T18:28:43.239Z,97616.72
2023-02-24T18:31:12.310Z,97616.41
2023-02-24T18:33:39.191Z,97611.50
2023-02-24T18:36:06.688Z,97619.09
2023-02-24T18:38:35.119Z,97614.03
2023-02-24T18:41:04.123Z,97608.03
2023-02-24T18:43:31.739Z,97601.56
2023-02-24T18:45:59.699Z,97613.41
2023-02-24T18:48:26.994Z,97610.25
2023-02-24T18:50:54.147Z,97591.13
2023-02-24T18:53:21.865Z,97598.38
2023-02-24T18:55:49.932Z,97594.94
2023-02-24T18:58:16.519Z,97588.44
2023-02-24T19:00:43.996Z,97591.91
2023-02-24T19:03:10.707Z,97598.88
2023-02-24T19:05:39.040Z,97589.72
2023-02-24T19:08:05.968Z,97592.09
2023-02-24T19:10:32.596Z,97591.00
2023-02-24T19:13:00.549Z,97580.41
2023-02-24T19:15:27.118Z,97578.84
2023-02-24T19:17:53.765Z,97578.69
2023-02-24T19:20:20.361Z,97580.56
2023-02-24T19:22:49.226Z,97575.38
2023-02-24T19:25:17.130Z,97568.13
2023-02-24T19:27:43.731Z,97569.53
2023-02-24T19:30:13.004Z,97562.75
2023-02-24T19:32:39.897Z,97566.22
2023-02-24T19:35:07.802Z,97560.06
2023-02-24T19:37:34.481Z,97557.69
2023-02-24T19:40:01.047Z,97569.69
2023-02-24T19:42:27.730Z,97569.84
2023-02-24T19:44:54.276Z,97572.22
2023-02-24T19:47:22.400Z,97573.03
2023-02-24T19:49:49.060Z,97567.34
2023-02-24T19:52:15.599Z,97564.00
2023-02-24T19:54:42.185Z,97573.34
2023-02-24T19:57:10.306Z,97575.25
2023-02-24T19:59:37.050Z,97573.66
2023-02-24T20:02:03.642Z,97568.31
2023-02-24T20:04:32.368Z,97589.97
2023-02-24T20:06:58.902Z,97588.38
2023-02-24T20:09:25.491Z,97588.06
2023-02-24T20:11:52.077Z,97593.91
2023-02-24T20:14:19.359Z,97586.47
2023-02-24T20:16:47.257Z,97600.88
2023-02-24T20:19:14.787Z,97609.38
2023-02-24T20:21:42.874Z,97608.59
2023-02-24T20:24:13.792Z,97610.66
2023-02-24T20:26:41.816Z,97613.34
2023-02-24T20:29:09.092Z,97613.84
2023-02-24T20:31:35.757Z,97609.56
2023-02-24T20:34:03.962Z,97612.25
2023-02-24T20:36:30.549Z,97617.00
2023-02-24T20:38:59.738Z,97612.09
2023-02-24T20:41:27.421Z,97613.97
2023-02-24T20:43:54.027Z,97617.81
2023-02-24T20:46:22.858Z,97617.00
2023-02-24T20:48:50.462Z,97619.69
2023-02-24T20:51:17.137Z,97624.28
2023-02-24T20:53:56.661Z,97616.53
2023-02-24T20:56:26.981Z,97612.44
2023-02-24T20:58:58.731Z,97619.22
2023-02-24T21:01:26.122Z,97621.91
2023-02-24T21:03:52.688Z,97635.63
2023-02-24T21:06:19.259Z,97635.31
2023-02-24T21:08:46.004Z,97625.84
2023-02-24T21:11:14.815Z,97618.91
2023-02-24T21:13:44.742Z,97617.31
2023-02-24T21:16:12.881Z,97621.91
2023-02-24T21:18:40.007Z,97614.66
2023-02-24T21:21:10.376Z,97627.94
2023-02-24T21:23:38.468Z,97620.34
2023-02-24T21:26:06.719Z,97624.31
2023-02-24T21:28:33.896Z,97624.63
2023-02-24T21:31:07.083Z,97612.16
2023-02-24T21:33:33.872Z,97619.06
2023-02-24T21:36:02.187Z,97611.19
2023-02-24T21:38:29.077Z,97614.03
2023-02-24T21:40:58.892Z,97619.56
2023-02-24T21:43:25.541Z,97624.00
2023-02-24T21:45:52.281Z,97627.78
2023-02-24T21:48:20.285Z,97631.75
2023-02-24T21:50:57.551Z,97627.31
2023-02-24T21:53:24.177Z,97628.28
2023-02-24T21:55:50.674Z,97632.69
2023-02-24T21:58:17.221Z,97629.22
2023-02-24T22:00:43.755Z,97629.53
2023-02-24T22:03:10.552Z,97626.03
2023-02-24T22:05:38.437Z,97631.28
2023-02-24T22:08:05.031Z,97629.38
2023-02-24T22:10:31.631Z,97621.31
2023-02-24T22:12:58.223Z,97631.59
2023-02-24T22:15:24.735Z,97632.22
2023-02-24T22:17:51.408Z,97642.66
2023-02-24T22:20:18.121Z,97637.59
2023-02-24T22:22:46.136Z,97634.59
2023-02-24T22:25:12.701Z,97643.44
2023-02-24T22:27:39.675Z,97643.59
2023-02-24T22:30:07.772Z,97640.91
2023-02-24T22:32:34.718Z,97638.22
2023-02-24T22:35:01.488Z,97633.97
2023-02-24T22:37:28.193Z,97635.69
2023-02-24T22:39:56.094Z,97628.09
2023-02-24T22:42:22.682Z,97630.78
2023-02-24T22:44:49.297Z,97625.41
2023-02-24T22:47:15.842Z,97627.94
2023-02-24T22:49:42.693Z,97627.16
2023-02-24T22:52:09.427Z,97630.78
2023-02-24T22:54:35.955Z,97636.34
2023-02-24T22:57:04.037Z,97630.78
2023-02-24T22:59:30.646Z,97642.66
2023-02-24T23:01:57.175Z,97645.03
2023-02-24T23:04:23.798Z,97644.06
2023-02-24T23:06:50.366Z,97653.56
2023-02-24T23:09:17.001Z,97647.72
2023-02-24T23:11:43.681Z,97645.97
2023-02-24T23:14:13.589Z,97649.13
2023-02-24T23:16:42.316Z,97648.66
2023-02-24T23:19:13.101Z,97644.22
2023-02-24T23:21:41.979Z,97654.97
2023-02-24T23:24:11.810Z,97644.06
2023-02-24T23:26:39.677Z,97657.50
2023-02-24T23:29:07.192Z,97655.91
2023-02-24T23:31:35.144Z,97648.03
2023-02-24T23:34:01.922Z,97647.22
2023-02-24T23:36:28.524Z,97649.78
2023-02-24T23:38:56.686Z,97654.50
2023-02-24T23:41:23.260Z,97649.91
2023-02-24T23:43:49.787Z,97656.72
2023-02-24T23:46:16.461Z,97657.50
2023-02-24T23:48:44.570Z,97651.19
2023-02-24T23:51:13.584Z,97673.19
2023-02-24T23:53:41.727Z,97646.13
2023-02-24T23:56:10.525Z,97648.03
2023-02-24T23:58:37.254Z,97664.94
